Time;durP1;ratioP1;P1;durP2;ratioP2;P2;SDS_P1;SDS_P2;PMS_P1;PMS_P2;Temp;Humidity;BMP_temperature;BMP_pressure;BME280_temperature;BME280_humidity;BME280_pressure;Samples;Min_cycle;Max_cycle;Signal;HPM_P1;HPM_P2
2022/10/14 00:01:13;;;;;;;2.28;1.65;;;;;;;9.08;68.67;99823.75;4906714;29;20038;-96
2022/10/14 00:03:40;;;;;;;5.50;1.85;;;;;;;9.06;69.00;99821.28;4891112;29;20034;-96
2022/10/14 00:06:07;;;;;;;2.70;1.60;;;;;;;9.02;69.51;99820.16;4891084;29;20059;-95
2022/10/14 00:08:33;;;;;;;3.53;2.00;;;;;;;9.03;69.31;99826.38;4891525;29;20019;-96
2022/10/14 00:11:06;;;;;;;2.70;1.83;;;;;;;9.04;69.54;99833.34;4907012;29;20024;-96
2022/10/14 00:13:31;;;;;;;2.72;1.65;;;;;;;8.98;69.85;99819.03;4891235;29;20055;-96
2022/10/14 00:15:57;;;;;;;2.30;1.55;;;;;;;8.86;69.73;99802.19;4899042;29;20414;-96
2022/10/14 00:18:22;;;;;;;2.08;1.55;;;;;;;8.78;69.63;99783.81;4906855;29;20036;-96
2022/10/14 00:20:58;;;;;;;2.70;1.67;;;;;;;8.94;69.93;99800.97;4899802;29;20027;-96
2022/10/14 00:23:24;;;;;;;3.63;1.73;;;;;;;8.94;69.37;99809.03;4890892;29;20457;-95
2022/10/14 00:25:49;;;;;;;3.17;2.13;;;;;;;8.95;69.40;99811.47;4891168;29;20027;-96
2022/10/14 00:28:15;;;;;;;3.40;1.90;;;;;;;8.93;69.71;99808.22;4890863;29;20198;-95
2022/10/14 00:30:40;;;;;;;3.75;2.15;;;;;;;8.93;69.21;99808.22;4891107;29;20030;-95
2022/10/14 00:33:06;;;;;;;3.65;2.00;;;;;;;8.95;69.59;99806.09;4890348;29;20175;-95
2022/10/14 00:35:31;;;;;;;2.70;1.80;;;;;;;8.89;69.91;99796.34;4890341;29;20022;-96
2022/10/14 00:37:58;;;;;;;3.47;1.65;;;;;;;8.75;70.61;99789.69;4891184;29;20028;-95
2022/10/14 00:40:24;;;;;;;2.95;1.70;;;;;;;8.81;70.44;99799.47;4894457;29;20473;-95
2022/10/14 00:42:50;;;;;;;6.95;2.08;;;;;;;8.74;70.83;99796.94;4906087;29;20118;-95
2022/10/14 00:45:19;;;;;;;3.00;1.60;;;;;;;8.80;71.06;99813.91;4921940;29;20024;-96
2022/10/14 00:47:44;;;;;;;3.25;1.90;;;;;;;8.67;71.42;99791.75;4906129;29;20118;-96
2022/10/14 00:50:10;;;;;;;3.50;1.70;;;;;;;8.65;70.76;99793.03;4921626;29;20126;-96
2022/10/14 00:52:36;;;;;;;2.65;1.55;;;;;;;8.65;71.28;99780.44;4905876;29;20034;-95
2022/10/14 00:55:14;;;;;;;3.33;1.90;;;;;;;8.67;71.04;99778.34;4905334;29;20019;-95
2022/10/14 00:57:39;;;;;;;7.32;2.00;;;;;;;8.66;71.16;99775.88;4890335;29;20038;-95
2022/10/14 01:00:10;;;;;;;2.63;1.70;;;;;;;8.70;71.11;99780.50;4906794;29;20027;-96
2022/10/14 01:02:35;;;;;;;2.72;1.55;;;;;;;8.70;70.80;99779.72;4905469;29;20030;-96
2022/10/14 01:05:01;;;;;;;2.65;2.10;;;;;;;8.77;70.54;99787.59;4921604;29;20426;-95
2022/10/14 01:07:35;;;;;;;3.08;1.70;;;;;;;8.90;70.62;99800.66;4921819;29;20039;-96
2022/10/14 01:10:13;;;;;;;5.55;1.80;;;;;;;8.93;71.37;99805.53;4922132;29;20442;-96
2022/10/14 01:12:54;;;;;;;3.58;1.80;;;;;;;8.90;71.38;99803.34;4922442;29;20032;-96
2022/10/14 01:15:46;;;;;;;4.65;1.75;;;;;;;8.80;71.31;99787.91;4921916;29;20118;-96
2022/10/14 01:18:12;;;;;;;3.78;2.15;;;;;;;8.87;72.27;99801.16;4936411;29;20048;-96
2022/10/14 01:20:44;;;;;;;2.90;1.80;;;;;;;8.83;71.32;99789.28;4920664;29;20500;-96
2022/10/14 01:23:28;;;;;;;;;;;;;;;8.80;71.73;99787.06;4921619;29;20031;-96
2022/10/14 01:25:59;;;;;;;3.53;2.28;;;;;;;8.74;71.76;99790.78;4921191;29;19925;-96
2022/10/14 01:28:44;;;;;;;4.18;2.00;;;;;;;8.68;72.57;99785.31;4921850;29;20055;-96
2022/10/14 01:31:10;;;;;;;5.95;2.95;;;;;;;8.58;72.42;99776.28;4934097;29;20027;-96
2022/10/14 01:33:37;;;;;;;6.57;2.15;;;;;;;8.48;72.49;99768.91;4908163;29;20031;-96
2022/10/14 01:36:16;;;;;;;4.97;2.30;;;;;;;8.53;72.41;99771.66;4907806;29;20425;-96
2022/10/14 01:38:48;;;;;;;5.32;2.38;;;;;;;8.50;72.43;99766.78;4909409;29;20031;-96
2022/10/14 01:41:20;;;;;;;4.93;2.30;;;;;;;8.50;71.96;99762.22;4894805;29;20024;-96
2022/10/14 01:43:47;;;;;;;6.00;1.98;;;;;;;8.54;71.17;99757.19;4890010;29;20036;-96
2022/10/14 01:46:13;;;;;;;4.88;2.28;;;;;;;8.54;72.47;99749.13;4902989;29;20027;-96
2022/10/14 01:48:42;;;;;;;12.73;2.45;;;;;;;8.52;71.81;99751.25;4907849;29;20035;-96
2022/10/14 01:51:12;;;;;;;3.08;1.98;;;;;;;8.58;71.78;99763.69;4924499;29;20031;-96
2022/10/14 01:53:39;;;;;;;8.60;2.35;;;;;;;8.55;71.91;99755.31;4908669;29;20039;-96
2022/10/14 01:56:05;;;;;;;9.15;2.00;;;;;;;8.69;71.95;99759.28;4908171;29;20034;-95
2022/10/14 01:58:31;;;;;;;3.50;2.03;;;;;;;8.61;71.77;99748.94;4923274;29;20031;-96
2022/10/14 02:00:56;;;;;;;3.05;2.05;;;;;;;8.59;72.05;99751.06;4904811;29;20042;-96
2022/10/14 02:03:22;;;;;;;4.10;2.10;;;;;;;8.57;71.85;99754.03;4888804;29;20035;-95
2022/10/14 02:06:05;;;;;;;2.55;1.90;;;;;;;8.57;71.74;99766.59;4889263;29;20052;-96
2022/10/14 02:08:45;;;;;;;6.13;2.03;;;;;;;8.56;72.30;99767.69;4890004;29;20042;-96
2022/10/14 02:11:13;;;;;;;8.60;2.25;;;;;;;8.53;72.23;99770.84;4920273;29;20090;-95
2022/10/14 02:14:00;;;;;;;3.53;2.15;;;;;;;8.59;72.60;99773.38;4904920;29;20019;-96
2022/10/14 02:16:46;;;;;;;4.13;1.95;;;;;;;8.48;72.81;99755.47;4904427;29;20028;-96
2022/10/14 02:19:15;;;;;;;4.35;2.10;;;;;;;8.58;72.34;99766.38;4889521;29;20592;-95
2022/10/14 02:22:04;;;;;;;2.75;2.05;;;;;;;8.44;72.65;99744.41;4920178;29;20030;-94
2022/10/14 02:24:31;;;;;;;4.15;2.10;;;;;;;8.40;72.12;99750.50;4904975;29;20035;-96
2022/10/14 02:26:59;;;;;;;4.35;1.95;;;;;;;8.46;72.19;99761.06;4889993;29;20431;-96
2022/10/14 02:29:24;;;;;;;7.57;2.50;;;;;;;8.45;72.38;99753.28;4889187;29;20126;-96
2022/10/14 02:31:50;;;;;;;7.88;2.17;;;;;;;8.49;72.05;99747.19;4889165;29;20511;-96
2022/10/14 02:34:17;;;;;;;8.23;3.00;;;;;;;8.42;71.86;99726.94;4888773;29;20023;-96
2022/10/14 02:36:43;;;;;;;3.28;2.00;;;;;;;8.35;71.90;99724.41;4902598;29;20024;-96
2022/10/14 02:39:10;;;;;;;3.63;2.03;;;;;;;8.41;72.27;99728.00;4919673;29;20501;-96
2022/10/14 02:41:36;;;;;;;6.82;2.25;;;;;;;8.41;71.92;99728.81;4904032;29;20024;-95
2022/10/14 02:44:03;;;;;;;4.80;2.22;;;;;;;8.39;72.31;99730.91;4919713;29;20561;-95
2022/10/14 02:46:28;;;;;;;4.20;2.15;;;;;;;8.51;72.27;99736.22;4920060;29;20110;-96
2022/10/14 02:48:54;;;;;;;8.18;2.47;;;;;;;8.47;72.29;99727.84;4903796;29;20020;-96
2022/10/14 02:51:19;;;;;;;3.90;2.05;;;;;;;8.48;72.27;99734.00;4920140;29;20058;-96
2022/10/14 02:53:45;;;;;;;6.75;2.25;;;;;;;8.49;72.18;99728.41;4920079;29;20028;-96
2022/10/14 02:56:12;;;;;;;4.60;2.50;;;;;;;8.43;72.74;99718.66;4904079;29;20063;-96
2022/10/14 02:58:37;;;;;;;4.68;2.55;;;;;;;8.40;72.24;99715.59;4903966;29;20028;-96
2022/10/14 03:01:03;;;;;;;3.38;2.03;;;;;;;8.37;72.24;99732.22;4895590;29;20079;-96
2022/10/14 03:03:28;;;;;;;4.82;2.30;;;;;;;8.44;72.36;99735.56;4888891;29;20028;-96
2022/10/14 03:05:54;;;;;;;4.25;2.13;;;;;;;8.52;72.35;99747.75;4872758;29;20040;-96
2022/10/14 03:08:19;;;;;;;5.50;2.58;;;;;;;8.49;72.57;99741.00;4869603;29;20075;-95
2022/10/14 03:10:46;;;;;;;4.40;2.55;;;;;;;8.47;72.94;99743.13;4888484;29;20154;-96
2022/10/14 03:13:11;;;;;;;8.95;2.78;;;;;;;8.41;73.04;99739.53;4904302;29;20383;-96
2022/10/14 03:15:37;;;;;;;8.05;3.00;;;;;;;8.22;72.87;99719.38;4903997;29;20024;-95
2022/10/14 03:18:02;;;;;;;4.43;2.38;;;;;;;8.24;73.07;99730.69;4935419;29;20028;-94
2022/10/14 03:20:28;;;;;;;3.55;2.42;;;;;;;8.14;73.20;99734.00;4904610;29;20046;-96
2022/10/14 03:22:53;;;;;;;4.80;2.25;;;;;;;8.03;73.08;99727.66;4904101;29;20095;-96
2022/10/14 03:25:19;;;;;;;7.78;3.15;;;;;;;8.00;73.76;99727.31;4903457;29;20031;-96
2022/10/14 03:27:44;;;;;;;9.10;2.40;;;;;;;8.00;74.01;99741.53;4904342;29;20032;-94
2022/10/14 03:30:10;;;;;;;4.75;2.00;;;;;;;7.90;73.93;99744.84;4935535;29;20047;-94
2022/10/14 03:32:36;;;;;;;5.97;2.45;;;;;;;7.83;74.29;99744.19;4904096;29;20078;-96
2022/10/14 03:35:01;;;;;;;4.32;2.17;;;;;;;7.76;74.47;99750.75;4903483;29;20074;-96
2022/10/14 03:37:27;;;;;;;6.43;2.38;;;;;;;7.75;74.41;99743.78;4919323;29;20035;-96
2022/10/14 03:39:52;;;;;;;7.63;3.20;;;;;;;7.60;75.10;99742.44;4904081;29;20403;-96
2022/10/14 03:42:18;;;;;;;3.83;2.45;;;;;;;7.52;74.68;99723.25;4905288;29;20067;-96
2022/10/14 03:44:45;;;;;;;7.18;2.55;;;;;;;7.66;74.97;99727.28;4907213;29;20561;-96
2022/10/14 03:47:10;;;;;;;3.17;2.33;;;;;;;7.81;74.33;99721.38;4907985;29;20020;-95
2022/10/14 03:53:38;;;;;;;6.68;2.50;;;;;;;7.88;74.61;99741.59;4843813;29;20034;-95
2022/10/14 03:56:06;;;;;;;4.45;2.45;;;;;;;7.85;74.96;99741.28;4813473;29;20034;-95
2022/10/14 03:58:31;;;;;;;5.80;2.45;;;;;;;7.85;74.43;99742.09;4814834;29;20073;-95
2022/10/14 04:00:57;;;;;;;6.38;2.75;;;;;;;7.77;74.68;99717.53;4865476;29;20038;-96
2022/10/14 04:03:22;;;;;;;5.30;3.05;;;;;;;7.73;74.88;99732.47;4923439;29;20498;-95
2022/10/14 04:05:51;;;;;;;4.80;2.40;;;;;;;7.65;74.58;99739.84;4899000;29;20047;-95
2022/10/14 04:08:17;;;;;;;7.50;3.13;;;;;;;7.59;75.11;99737.31;4914625;29;20485;-92
2022/10/14 04:10:42;;;;;;;4.80;2.50;;;;;;;7.54;75.15;99731.88;4902793;29;20038;-93
2022/10/14 04:13:08;;;;;;;4.97;2.83;;;;;;;7.42;75.19;99727.34;4909895;29;20024;-93
2022/10/14 04:15:36;;;;;;;9.40;4.03;;;;;;;7.49;75.31;99743.28;4900285;29;20091;-93
2022/10/14 04:18:02;;;;;;;5.47;3.72;;;;;;;7.33;75.39;99714.59;4903205;29;20059;-94
2022/10/14 04:20:27;;;;;;;8.88;4.25;;;;;;;7.36;75.36;99722.16;4908448;29;20027;-93
2022/10/14 04:22:53;;;;;;;8.13;4.10;;;;;;;7.27;75.93;99727.88;4909960;29;20031;-93
2022/10/14 04:25:18;;;;;;;5.72;2.80;;;;;;;7.23;75.82;99720.56;4892819;29;20042;-93
2022/10/14 04:27:44;;;;;;;9.40;4.03;;;;;;;7.25;75.82;99721.13;4888030;29;20032;-94
2022/10/14 04:30:11;;;;;;;4.70;2.70;;;;;;;7.20;75.83;99719.19;4900484;29;20036;-92
2022/10/14 04:32:39;;;;;;;4.47;2.58;;;;;;;7.15;75.80;99718.25;4906841;29;20028;-94
2022/10/14 04:35:05;;;;;;;5.93;2.78;;;;;;;7.11;75.81;99723.25;4891215;29;20050;-94
2022/10/14 04:37:30;;;;;;;5.25;3.00;;;;;;;7.17;76.18;99724.19;4890250;29;20031;-93
2022/10/14 04:39:56;;;;;;;5.22;2.78;;;;;;;7.12;76.06;99716.88;4890898;29;20066;-93
2022/10/14 04:42:21;;;;;;;8.35;3.22;;;;;;;7.17;76.02;99726.88;4890046;29;20023;-93
2022/10/14 04:44:47;;;;;;;4.30;2.83;;;;;;;7.23;75.78;99728.59;4902773;29;20035;-95
2022/10/14 04:47:12;;;;;;;9.45;3.30;;;;;;;7.35;75.35;99740.09;4904944;29;20028;-93
2022/10/14 04:49:38;;;;;;;8.55;4.03;;;;;;;7.34;75.89;99735.78;4905346;29;20066;-93
2022/10/14 04:52:22;;;;;;;10.43;3.50;;;;;;;7.44;75.62;99743.19;4906837;29;20036;-96
2022/10/14 04:58:02;;;;;;;5.28;3.20;;;;;;;7.42;74.61;99727.34;4911363;29;20032;-93
2022/10/14 05:00:28;;;;;;;12.05;4.10;;;;;;;7.60;74.93;99758.53;4905454;29;20051;-92
2022/10/14 05:02:56;;;;;;;7.80;4.40;;;;;;;7.43;74.97;99738.91;4890094;29;20024;-92
2022/10/14 05:05:22;;;;;;;8.45;3.45;;;;;;;7.35;74.89;99721.34;4901939;29;20114;-92
2022/10/14 05:07:57;;;;;;;6.30;3.17;;;;;;;7.50;75.22;99755.66;4909560;29;20027;-93
2022/10/14 05:10:25;;;;;;;9.07;3.00;;;;;;;7.30;75.34;99737.28;4902374;29;20214;-92
2022/10/14 05:12:50;;;;;;;5.45;3.22;;;;;;;7.27;75.17;99741.28;4916910;29;20461;-94
2022/10/14 05:15:19;;;;;;;7.70;3.95;;;;;;;7.29;75.53;99751.75;4906627;29;20023;-93
2022/10/14 05:17:44;;;;;;;6.22;3.17;;;;;;;7.23;75.22;99750.81;4907825;29;20027;-94
2022/10/14 05:20:30;;;;;;;9.45;3.85;;;;;;;7.21;75.82;99736.06;4915877;29;20031;-93
2022/10/14 05:22:55;;;;;;;6.57;3.70;;;;;;;7.26;75.83;99730.78;4934679;29;20437;-92
2022/10/14 05:25:21;;;;;;;7.50;3.88;;;;;;;7.43;75.33;99739.72;4907745;29;20059;-92
2022/10/14 05:27:52;;;;;;;5.57;3.50;;;;;;;7.48;75.34;99736.31;4899601;29;20039;-96
2022/10/14 05:30:32;;;;;;;36.78;20.85;;;;;;;7.74;74.64;99742.97;4930868;29;20031;-95
2022/10/14 05:32:57;;;;;;;11.55;6.70;;;;;;;7.94;73.56;99731.78;4914978;29;20066;-95
2022/10/14 05:35:23;;;;;;;12.10;3.70;;;;;;;8.04;72.53;99729.28;4931319;29;20031;-96
2022/10/14 05:37:54;;;;;;;5.85;4.00;;;;;;;8.15;72.53;99738.28;4932658;29;20050;-96
2022/10/14 05:40:20;;;;;;;7.17;4.33;;;;;;;8.20;72.54;99732.22;4915231;29;20039;-95
2022/10/14 05:42:48;;;;;;;5.65;3.47;;;;;;;8.23;72.16;99729.03;4914321;29;20058;-95
2022/10/14 05:45:23;;;;;;;6.50;4.03;;;;;;;8.19;72.32;99739.44;4912149;29;20031;-95
2022/10/14 05:47:54;;;;;;;7.03;4.10;;;;;;;8.19;72.19;99728.69;4927060;29;20413;-96
2022/10/14 05:50:25;;;;;;;13.48;3.95;;;;;;;8.34;71.97;99740.72;4913105;29;20039;-95
2022/10/14 05:52:54;;;;;;;7.07;3.97;;;;;;;8.45;72.17;99734.50;4927096;29;20035;-95
2022/10/14 05:55:22;;;;;;;6.10;3.42;;;;;;;8.49;71.92;99733.78;4911736;29;20031;-96
2022/10/14 05:57:48;;;;;;;11.13;3.53;;;;;;;8.62;71.66;99748.72;4910022;29;20543;-94
2022/10/14 06:00:42;;;;;;;8.70;4.10;;;;;;;8.63;71.44;99730.72;4912856;29;20023;-95
2022/10/14 06:05:57;;;;;;;9.60;4.03;;;;;;;8.99;70.85;99745.47;5346347;23;20042;-96
2022/10/14 06:15:33;;;;;;;8.13;4.18;;;;;;;9.29;70.54;99774.56;4884485;29;20059;-95
2022/10/14 06:18:01;;;;;;;8.45;3.60;;;;;;;9.43;70.01;99758.91;4900393;29;20531;-91
2022/10/14 06:23:55;;;;;;;7.43;3.80;;;;;;;9.49;70.37;99754.41;4904062;29;20140;-92
2022/10/14 06:26:23;;;;;;;9.15;4.18;;;;;;;9.63;69.94;99755.63;4904940;29;20020;-93
2022/10/14 06:29:36;;;;;;;7.60;4.05;;;;;;;9.85;69.48;99760.16;4904340;29;20064;-95
2022/10/14 06:32:06;;;;;;;7.10;3.65;;;;;;;9.92;68.94;99744.63;4883073;29;20028;-92
2022/10/14 06:34:37;;;;;;;7.30;3.70;;;;;;;10.01;68.32;99734.22;4866472;29;20067;-94
2022/10/14 06:37:18;;;;;;;11.43;4.50;;;;;;;10.22;67.61;99754.03;4885720;29;20117;-96
2022/10/14 06:39:49;;;;;;;7.35;3.72;;;;;;;10.28;67.93;99753.81;4902788;29;20032;-94
2022/10/14 06:42:33;;;;;;;;;;;;;;;;;;;;;
2022/10/14 06:47:51;;;;;;;11.45;6.68;;;;;;;10.51;66.83;99743.78;4953424;28;20044;-96
2022/10/14 06:59:56;;;;;;;8.45;4.13;;;;;;;11.25;65.51;99761.72;5704688;23;20059;-96
2022/10/14 07:02:22;;;;;;;9.85;4.10;;;;;;;11.35;64.93;99741.25;4980966;28;20074;-95
2022/10/14 07:04:47;;;;;;;4.78;3.00;;;;;;;11.41;64.71;99724.81;4946854;28;20034;-96
2022/10/14 07:07:13;;;;;;;4.07;2.95;;;;;;;11.71;63.82;99740.28;4943404;28;20038;-93
2022/10/14 07:09:58;;;;;;;;;;;;;;;;;;;;;
2022/10/14 07:12:45;;;;;;;6.80;3.10;;;;;;;12.02;62.65;99740.34;4948835;28;20029;-93
2022/10/14 07:15:25;;;;;;;2.70;1.70;;;;;;;12.24;60.72;99728.47;4959677;28;20027;-94
2022/10/14 07:17:50;;;;;;;4.18;2.13;;;;;;;12.49;60.30;99723.06;4927005;28;20040;-96
2022/10/14 07:20:28;;;;;;;3.75;2.35;;;;;;;12.70;60.54;99737.34;4929687;28;20169;-92
2022/10/14 07:22:55;;;;;;;5.05;2.63;;;;;;;12.76;60.34;99726.50;4948300;28;20089;-95
2022/10/14 07:25:24;;;;;;;3.35;1.85;;;;;;;12.91;59.71;99729.19;4946843;28;20014;-95
2022/10/14 07:27:52;;;;;;;6.60;3.22;;;;;;;12.91;60.25;99719.19;4946719;28;20030;-93
2022/10/14 07:30:17;;;;;;;4.30;2.05;;;;;;;13.01;60.26;99734.56;4966060;28;20030;-94
2022/10/14 07:32:46;;;;;;;5.50;2.85;;;;;;;13.07;60.19;99717.25;4965489;28;20128;-96
2022/10/14 07:35:30;;;;;;;6.63;2.33;;;;;;;13.27;59.04;99707.41;4999962;23;20052;-96
2022/10/14 07:37:57;;;;;;;3.35;1.90;;;;;;;13.61;58.54;99725.66;4918466;29;20075;-95
2022/10/14 07:43:50;;;;;;;10.45;6.10;;;;;;;13.79;58.46;99710.66;4943338;29;20034;-95
2022/10/14 07:46:36;;;;;;;10.35;3.53;;;;;;;13.71;58.09;99706.66;4897701;29;20064;-94
2022/10/14 07:49:22;;;;;;;5.00;1.60;;;;;;;13.92;57.68;99710.84;4896808;29;20039;-93
2022/10/14 07:54:55;;;;;;;7.97;2.25;;;;;;;14.23;55.57;99702.44;4848961;29;20045;-92
2022/10/14 07:57:23;;;;;;;3.08;2.08;;;;;;;14.33;54.73;99688.81;4821328;29;20554;-93
2022/10/14 07:59:59;;;;;;;3.63;1.63;;;;;;;14.60;54.68;99702.97;4853263;29;20032;-92
2022/10/14 08:02:27;;;;;;;6.25;1.83;;;;;;;14.71;54.26;99697.16;4888877;29;20039;-91
2022/10/14 08:04:54;;;;;;;4.43;1.88;;;;;;;14.87;53.97;99702.38;4906629;29;20553;-94
2022/10/14 08:07:25;;;;;;;2.92;1.38;;;;;;;14.89;53.68;99695.56;4893510;29;20035;-96
2022/10/14 08:09:56;;;;;;;5.93;1.92;;;;;;;15.05;53.22;99707.06;4908716;29;20122;-92
2022/10/14 08:12:25;;;;;;;3.45;1.70;;;;;;;15.06;53.54;99681.53;4911447;29;20525;-96
2022/10/14 08:15:03;;;;;;;2.55;1.33;;;;;;;15.33;52.80;99697.19;4926310;29;20082;-96
2022/10/14 08:17:55;;;;;;;;;;;;;;;;;;;;;
2022/10/14 08:27:05;;;;;;;3.55;1.67;;;;;;;15.55;50.49;99684.97;5048630;23;20031;-96
2022/10/14 08:29:31;;;;;;;5.47;2.35;;;;;;;15.78;49.48;99694.16;4977375;28;20475;-93
2022/10/14 08:32:23;;;;;;;1.58;0.98;;;;;;;15.81;48.78;99671.03;4925378;28;20039;-93
2022/10/14 08:34:48;;;;;;;3.00;1.38;;;;;;;15.97;49.00;99688.69;4977382;28;20157;-93
2022/10/14 08:37:14;;;;;;;4.15;1.20;;;;;;;16.16;48.49;99700.34;4928652;28;20058;-93
2022/10/14 08:39:39;;;;;;;3.33;1.27;;;;;;;16.22;48.46;99689.38;4928822;28;20030;-92
2022/10/14 08:42:45;;;;;;;3.58;1.80;;;;;;;16.43;48.94;99696.06;4931125;28;20030;-93
2022/10/14 08:45:31;;;;;;;3.15;1.27;;;;;;;16.59;47.69;99703.94;4961871;28;20027;-93
2022/10/14 08:47:57;;;;;;;5.60;1.30;;;;;;;16.38;47.31;99668.19;4946065;28;20034;-91
2022/10/14 08:50:30;;;;;;;4.85;3.03;;;;;;;16.65;48.15;99683.72;4943905;28;20101;-90
2022/10/14 08:53:06;;;;;;;2.03;1.30;;;;;;;16.71;48.78;99682.50;4945879;28;20093;-95
2022/10/14 08:55:41;;;;;;;1.30;0.95;;;;;;;16.72;48.96;99674.03;4944266;28;20189;-95
2022/10/14 08:58:13;;;;;;;2.47;1.25;;;;;;;16.84;48.84;99683.66;4929192;28;20042;-93
2022/10/14 09:00:48;;;;;;;2.88;1.02;;;;;;;16.90;48.01;99679.72;4945127;28;20031;-92
2022/10/14 09:03:43;;;;;;;2.85;1.00;;;;;;;17.09;48.26;99699.44;4930357;28;20035;-90
2022/10/14 09:06:19;;;;;;;3.33;1.02;;;;;;;16.98;48.66;99687.16;4951589;28;20039;-91
2022/10/14 09:09:02;;;;;;;2.00;1.08;;;;;;;17.04;48.77;99694.13;4930891;28;20049;-92
2022/10/14 09:11:39;;;;;;;2.10;1.25;;;;;;;17.00;48.38;99682.22;4933227;28;20050;-95
2022/10/14 09:14:06;;;;;;;1.95;1.10;;;;;;;17.09;47.85;99679.59;4945455;28;20033;-95
2022/10/14 09:16:37;;;;;;;3.08;1.60;;;;;;;17.11;47.74;99672.72;4928680;28;20027;-91
2022/10/14 09:19:16;;;;;;;4.57;1.20;;;;;;;17.19;47.31;99673.94;4928340;28;20027;-93
2022/10/14 09:21:45;;;;;;;3.15;1.33;;;;;;;17.08;47.79;99665.19;4935372;28;20056;-94
2022/10/14 09:24:19;;;;;;;4.15;2.13;;;;;;;17.37;47.29;99689.34;4911620;29;20038;-94
2022/10/14 09:27:03;;;;;;;3.20;1.50;;;;;;;17.27;47.71;99669.69;4927633;28;20054;-96
2022/10/14 09:29:43;;;;;;;2.70;1.60;;;;;;;17.43;47.33;99678.31;4967763;28;20019;-96
2022/10/14 09:32:33;;;;;;;3.92;1.95;;;;;;;17.50;46.81;99674.06;4958240;28;20015;-96
2022/10/14 09:35:39;;;;;;;3.88;1.40;;;;;;;17.48;46.32;99667.31;4959168;28;20093;-96
2022/10/14 09:44:25;;;;;;;1.33;1.00;;;;;;;17.68;45.78;99690.53;2803791;23;21356;-90
2022/10/14 09:46:57;;;;;;;3.15;1.40;;;;;;;17.65;45.15;99669.38;4997240;28;20051;-96
2022/10/14 09:52:01;;;;;;;3.00;1.40;;;;;;;17.78;44.24;99661.16;5112609;23;20077;-96
2022/10/14 09:54:30;;;;;;;4.40;2.30;;;;;;;17.87;44.47;99661.25;4932876;28;20043;-96
2022/10/14 09:57:11;;;;;;;4.43;1.85;;;;;;;17.90;44.52;99648.94;4941699;29;20031;-96
2022/10/14 09:59:47;;;;;;;4.22;1.30;;;;;;;18.08;44.25;99666.19;4934958;29;20059;-94
2022/10/14 10:02:40;;;;;;;2.90;1.70;;;;;;;18.16;44.75;99671.69;4920461;29;20050;-96
2022/10/14 10:08:57;;;;;;;4.68;1.40;;;;;;;18.28;44.18;99676.59;4919808;29;20115;-96
2022/10/14 10:11:40;;;;;;;2.40;1.30;;;;;;;18.24;44.18;99655.69;4945594;29;20497;-96
2022/10/14 10:14:20;;;;;;;17.02;10.18;;;;;;;18.21;44.08;99661.78;4948547;29;20031;-96
2022/10/14 10:17:11;;;;;;;6.00;3.03;;;;;;;18.28;43.86;99645.78;4924595;29;20020;-92
2022/10/14 10:19:47;;;;;;;2.92;1.30;;;;;;;18.34;44.12;99639.91;4938605;29;20485;-93
2022/10/14 10:22:18;;;;;;;4.72;1.48;;;;;;;18.42;43.67;99651.94;4939124;29;20023;-92
2022/10/14 10:24:48;;;;;;;8.18;1.95;;;;;;;18.36;43.48;99634.94;4940424;29;20027;-93
2022/10/14 10:27:35;;;;;;;4.93;1.70;;;;;;;18.48;43.24;99645.22;4941194;29;20062;-92
2022/10/14 10:30:16;;;;;;;1.80;1.40;;;;;;;18.69;42.64;99658.31;4925604;28;20027;-91
2022/10/14 10:33:15;;;;;;;4.88;2.35;;;;;;;18.34;42.54;99618.09;4948241;29;20057;-92
2022/10/14 10:36:06;;;;;;;7.20;3.55;;;;;;;18.65;43.07;99641.75;4931414;29;20118;-94
2022/10/14 10:38:51;;;;;;;5.88;3.70;;;;;;;18.66;42.58;99624.28;4953266;28;20109;-92
2022/10/14 10:41:41;;;;;;;15.38;10.75;;;;;;;18.56;42.49;99589.91;4942670;28;20046;-93
2022/10/14 10:44:35;;;;;;;3.63;2.55;;;;;;;18.62;42.35;99598.75;4944287;28;20042;-93
2022/10/14 10:47:17;;;;;;;16.80;12.13;;;;;;;18.53;42.66;99614.28;4962192;28;20015;-95
2022/10/14 10:49:43;;;;;;;11.52;4.80;;;;;;;18.77;42.29;99630.25;4943936;28;20022;-95
2022/10/14 10:52:20;;;;;;;2.55;1.70;;;;;;;18.88;42.10;99617.94;4956616;28;20141;-91
2022/10/14 10:55:45;;;;;;;3.85;1.70;;;;;;;18.90;41.76;99596.59;4956607;28;20125;-94
2022/10/14 10:58:23;;;;;;;4.05;1.52;;;;;;;19.01;42.09;99591.66;4915102;29;20028;-92
2022/10/14 11:01:15;;;;;;;4.75;1.85;;;;;;;19.23;42.61;99609.81;4884663;29;20039;-92
2022/10/14 11:04:03;;;;;;;5.80;2.20;;;;;;;19.15;43.30;99594.22;4934199;28;20039;-92
2022/10/14 11:12:37;;;;;;;3.67;1.70;;;;;;;19.38;41.37;99592.97;4951352;28;19995;-93
2022/10/14 11:21:30;;;;;;;;;;;;;;;;;;;;;
2022/10/14 11:24:47;;;;;;;4.47;1.58;;;;;;;19.63;42.01;99555.03;4989181;28;20058;-94
2022/10/14 11:27:20;;;;;;;4.20;1.80;;;;;;;19.69;42.43;99563.81;4944026;28;20068;-96
2022/10/14 11:30:19;;;;;;;4.82;2.00;;;;;;;19.68;42.82;99565.78;4948019;28;20030;-95
2022/10/14 11:33:01;;;;;;;4.85;1.80;;;;;;;19.76;42.81;99559.50;4977762;28;20065;-96
2022/10/14 11:35:45;;;;;;;3.38;1.92;;;;;;;19.69;42.90;99544.72;4975314;28;20035;-95
2022/10/14 11:38:38;;;;;;;3.20;2.17;;;;;;;19.83;43.44;99552.75;4948591;28;20125;-95
2022/10/14 11:41:26;;;;;;;5.35;1.98;;;;;;;19.90;43.39;99551.13;4955355;28;20544;-91
2022/10/14 11:44:13;;;;;;;4.68;1.77;;;;;;;19.72;42.33;99555.03;4953269;28;20033;-91
2022/10/14 11:46:42;;;;;;;5.13;1.98;;;;;;;19.59;42.89;99533.00;4953317;28;20035;-92
2022/10/14 11:49:18;;;;;;;3.70;2.00;;;;;;;19.38;43.66;99545.72;4942011;28;20409;-92
2022/10/14 11:52:01;;;;;;;3.20;1.90;;;;;;;19.30;43.91;99530.97;4928766;28;20027;-92
2022/10/14 11:54:38;;;;;;;4.30;2.00;;;;;;;19.35;43.04;99528.06;4916233;28;20030;-93
2022/10/14 11:57:18;;;;;;;3.97;2.10;;;;;;;19.36;42.06;99520.66;4915350;28;20027;-91
2022/10/14 11:59:48;;;;;;;2.85;1.77;;;;;;;19.55;42.39;99537.50;4924327;29;20097;-91
2022/10/14 12:02:32;;;;;;;7.30;2.63;;;;;;;19.69;41.75;99550.16;4964291;28;20042;-92
2022/10/14 12:05:10;;;;;;;7.07;3.10;;;;;;;19.75;41.69;99543.44;4951980;29;20493;-91
2022/10/14 12:07:40;;;;;;;4.93;2.60;;;;;;;19.62;41.57;99528.81;4954870;28;20058;-92
2022/10/14 12:10:25;;;;;;;4.53;2.70;;;;;;;19.62;41.80;99544.41;4923105;29;20093;-91
2022/10/14 12:12:54;;;;;;;3.97;2.20;;;;;;;19.50;41.87;99528.69;4918751;29;20032;-93
2022/10/14 12:15:26;;;;;;;5.53;2.67;;;;;;;19.55;42.09;99526.59;4931342;29;20065;-95
2022/10/14 12:17:59;;;;;;;7.85;4.80;;;;;;;19.54;42.58;99526.91;4901439;29;20046;-95
2022/10/14 12:20:33;;;;;;;7.15;2.92;;;;;;;19.61;42.24;99519.03;4931937;29;20055;-96
2022/10/14 12:24:06;;;;;;;3.92;2.55;;;;;;;19.64;42.03;99512.13;4931480;28;20031;-96
2022/10/14 12:26:44;;;;;;;3.65;2.10;;;;;;;19.70;41.61;99536.22;4870821;29;20017;-96
2022/10/14 12:32:26;;;;;;;4.50;2.45;;;;;;;19.65;41.94;99510.97;4859695;29;20539;-96
2022/10/14 12:35:01;;;;;;;4.65;3.00;;;;;;;19.69;42.62;99495.53;4844468;29;20130;-96
2022/10/14 12:37:36;;;;;;;3.95;2.22;;;;;;;19.91;41.33;99519.13;4877681;29;20043;-96
2022/10/14 12:40:02;;;;;;;5.85;2.30;;;;;;;20.02;41.58;99528.56;4964620;29;20027;-94
2022/10/14 12:42:45;;;;;;;3.65;2.10;;;;;;;19.71;40.86;99496.03;4946649;29;20027;-95
2022/10/14 12:45:21;;;;;;;5.05;2.30;;;;;;;19.78;40.90;99497.16;4962682;29;20108;-96
2022/10/14 12:47:47;;;;;;;4.50;2.25;;;;;;;19.85;40.91;99502.09;4949407;28;20098;-96
2022/10/14 12:50:20;;;;;;;4.57;2.60;;;;;;;19.77;40.98;99517.38;4933385;28;20041;-95
2022/10/14 12:52:47;;;;;;;6.93;2.50;;;;;;;19.67;40.52;99500.53;4960222;28;20031;-95
2022/10/14 12:55:23;;;;;;;7.85;2.58;;;;;;;19.56;40.36;99481.75;4948729;29;20038;-95
2022/10/14 12:57:56;;;;;;;5.07;3.22;;;;;;;19.68;39.78;99491.22;4915724;29;20042;-96
2022/10/14 13:00:33;;;;;;;3.08;2.20;;;;;;;19.71;39.67;99518.69;4925948;29;20058;-92
2022/10/14 13:03:16;;;;;;;5.22;2.28;;;;;;;19.57;40.16;99486.09;4961820;28;20085;-92
2022/10/14 13:05:45;;;;;;;5.70;2.15;;;;;;;19.70;40.73;99497.97;4930789;28;20043;-92
2022/10/14 13:08:24;;;;;;;3.28;2.33;;;;;;;19.88;40.35;99515.13;4924816;29;20035;-92
2022/10/14 13:11:01;;;;;;;4.25;2.67;;;;;;;19.87;40.37;99512.72;4964902;28;20038;-92
2022/10/14 13:13:46;;;;;;;5.25;2.30;;;;;;;19.88;40.27;99514.31;4961849;28;20031;-94
2022/10/14 13:16:14;;;;;;;8.38;2.40;;;;;;;19.88;39.80;99517.84;4964973;28;20042;-93
2022/10/14 13:18:43;;;;;;;6.00;2.40;;;;;;;19.90;39.66;99521.06;4947111;28;20104;-93
2022/10/14 13:21:37;;;;;;;6.13;3.80;;;;;;;19.77;40.16;99505.66;4959165;28;20055;-93
2022/10/14 13:24:13;;;;;;;5.20;2.40;;;;;;;19.66;40.26;99490.75;4936334;29;20126;-95